createdAt,value
2019-03-04T00:02:22.935Z,73.75
2019-03-04T00:04:52.207Z,73.95
2019-03-04T00:07:21.401Z,73.70
2019-03-04T00:09:50.610Z,73.23
2019-03-04T00:12:19.866Z,73.17
2019-03-04T00:14:49.146Z,73.32
2019-03-04T00:17:18.343Z,73.41
2019-03-04T00:19:47.586Z,73.20
2019-03-04T00:22:16.816Z,72.80
2019-03-04T00:24:46.076Z,72.44
2019-03-04T00:27:15.280Z,72.35
2019-03-04T00:29:44.543Z,72.13
2019-03-04T00:32:13.729Z,72.05
2019-03-04T00:34:43.068Z,71.96
2019-03-04T00:37:12.248Z,71.84
2019-03-04T00:39:41.544Z,71.78
2019-03-04T00:42:10.876Z,71.76
2019-03-04T00:44:40.145Z,71.58
2019-03-04T00:47:09.368Z,71.35
2019-03-04T00:49:38.646Z,71.30
2019-03-04T00:52:07.845Z,71.20
2019-03-04T00:54:37.092Z,71.03
2019-03-04T00:57:06.332Z,70.92
2019-03-04T00:59:35.554Z,70.92
2019-03-04T01:02:04.747Z,70.86
2019-03-04T01:04:33.972Z,70.75
2019-03-04T01:07:03.464Z,70.77
2019-03-04T01:09:32.754Z,70.78
2019-03-04T01:12:01.942Z,70.59
2019-03-04T01:14:31.133Z,70.49
2019-03-04T01:17:00.467Z,70.55
2019-03-04T01:19:29.756Z,70.59
2019-03-04T01:21:58.981Z,70.67
2019-03-04T01:24:28.184Z,70.76
2019-03-04T01:26:57.430Z,70.87
2019-03-04T01:29:26.682Z,70.93
2019-03-04T01:31:55.872Z,71.15
2019-03-04T01:34:25.172Z,71.14
2019-03-04T01:36:54.392Z,71.14
2019-03-04T01:39:23.666Z,70.96
2019-03-04T01:41:52.842Z,70.82
2019-03-04T01:44:22.066Z,70.86
2019-03-04T01:46:51.349Z,70.72
2019-03-04T01:49:23.304Z,70.52
2019-03-04T01:51:52.392Z,70.49
2019-03-04T01:54:21.618Z,70.30
2019-03-04T01:56:50.822Z,70.19
2019-03-04T01:59:20.046Z,70.05
2019-03-04T02:01:49.249Z,69.98
2019-03-04T02:04:18.428Z,69.62
2019-03-04T02:06:47.676Z,69.62
2019-03-04T02:09:16.926Z,69.41
2019-03-04T02:11:46.194Z,69.20
2019-03-04T02:14:15.413Z,69.14
2019-03-04T02:16:44.698Z,69.21
2019-03-04T02:19:13.913Z,69.25
2019-03-04T02:21:43.127Z,69.07
2019-03-04T02:24:19.243Z,68.87
2019-03-04T02:26:48.475Z,68.84
2019-03-04T02:29:17.696Z,68.71
2019-03-04T02:31:46.887Z,68.66
2019-03-04T02:34:16.161Z,68.72
2019-03-04T02:36:45.375Z,68.74
2019-03-04T02:39:14.671Z,68.61
2019-03-04T02:41:43.957Z,68.57
2019-03-04T02:44:13.168Z,68.50
2019-03-04T02:46:42.463Z,68.42
2019-03-04T02:49:11.768Z,68.45
2019-03-04T02:51:40.948Z,68.53
2019-03-04T02:54:10.178Z,68.51
2019-03-04T02:56:39.464Z,68.72
2019-03-04T02:59:08.656Z,69.08
2019-03-04T03:01:37.879Z,69.31
2019-03-04T03:04:07.112Z,69.30
2019-03-04T03:06:36.372Z,69.00
2019-03-04T03:09:06.871Z,69.29
2019-03-04T03:11:36.074Z,69.47
2019-03-04T03:14:05.372Z,69.51
2019-03-04T03:16:34.694Z,69.60
2019-03-04T03:19:03.881Z,69.62
2019-03-04T03:21:33.129Z,69.77
2019-03-04T03:24:02.375Z,69.87
2019-03-04T03:26:31.638Z,70.00
2019-03-04T03:29:00.834Z,70.11
2019-03-04T03:31:30.117Z,70.14
2019-03-04T03:33:59.367Z,69.79
2019-03-04T03:36:28.627Z,69.82
2019-03-04T03:38:57.877Z,69.69
2019-03-04T03:41:27.207Z,69.67
2019-03-04T03:43:56.409Z,69.57
2019-03-04T03:46:25.632Z,69.70
2019-03-04T03:48:54.868Z,69.56
2019-03-04T03:51:24.063Z,69.55
2019-03-04T03:53:53.257Z,69.60
2019-03-04T03:56:22.465Z,69.50
2019-03-04T03:58:51.659Z,69.41
2019-03-04T04:01:20.874Z,69.25
2019-03-04T04:03:50.052Z,68.69
2019-03-04T04:06:19.287Z,68.75
2019-03-04T04:08:48.479Z,68.45
2019-03-04T04:11:17.812Z,68.46
2019-03-04T04:13:46.974Z,68.22
2019-03-04T04:16:16.200Z,68.03
2019-03-04T04:18:45.412Z,68.07
2019-03-04T04:21:14.765Z,68.06
2019-03-04T04:23:43.956Z,68.02
2019-03-04T04:26:22.617Z,68.00
2019-03-04T04:28:59.097Z,68.03
2019-03-04T04:31:28.320Z,67.76
2019-03-04T04:33:57.531Z,67.83
2019-03-04T04:36:26.889Z,67.75
2019-03-04T04:38:56.136Z,67.75
2019-03-04T04:41:25.354Z,67.46
2019-03-04T04:43:54.645Z,67.46
2019-03-04T04:46:49.552Z,67.90
2019-03-04T04:49:18.869Z,68.06
2019-03-04T04:51:48.166Z,68.20
2019-03-04T04:54:17.436Z,67.98
2019-03-04T04:56:46.669Z,68.08
2019-03-04T04:59:15.838Z,68.02
2019-03-04T05:01:45.058Z,68.04
2019-03-04T05:04:14.355Z,68.31
2019-03-04T05:06:43.610Z,68.29
2019-03-04T05:09:12.818Z,68.44
2019-03-04T05:11:42.031Z,68.53
2019-03-04T05:14:11.347Z,68.63
2019-03-04T05:16:40.556Z,68.71
2019-03-04T05:19:09.840Z,69.00
2019-03-04T05:21:39.082Z,69.03
2019-03-04T05:24:08.518Z,68.87
2019-03-04T05:26:37.758Z,68.88
2019-03-04T05:29:07.053Z,68.99
2019-03-04T05:31:36.350Z,69.10
2019-03-04T05:34:05.550Z,69.08
2019-03-04T05:36:34.746Z,68.99
2019-03-04T05:39:05.502Z,69.15
2019-03-04T05:41:34.782Z,68.97
2019-03-04T05:44:04.004Z,68.83
2019-03-04T05:46:33.247Z,68.83
2019-03-04T05:49:02.436Z,69.01
2019-03-04T05:51:31.680Z,69.01
2019-03-04T05:54:00.907Z,69.21
2019-03-04T05:56:30.090Z,69.17
2019-03-04T05:58:59.397Z,69.17
2019-03-04T06:01:33.354Z,69.25
2019-03-04T06:04:07.705Z,69.43
2019-03-04T06:07:04.750Z,68.12
2019-03-04T06:09:33.948Z,67.60
2019-03-04T06:12:03.187Z,65.91
2019-03-04T06:14:32.410Z,64.45
2019-03-04T06:17:01.632Z,62.79
2019-03-04T06:19:30.982Z,62.65
2019-03-04T06:22:00.363Z,61.80
2019-03-04T06:24:29.591Z,61.54
2019-03-04T06:26:58.868Z,61.26
2019-03-04T06:29:28.066Z,60.94
2019-03-04T06:31:57.266Z,60.25
2019-03-04T06:34:26.504Z,59.85
2019-03-04T06:36:55.738Z,59.72
2019-03-04T06:39:41.108Z,59.08
2019-03-04T06:42:10.382Z,59.08
2019-03-04T06:44:39.616Z,59.07
2019-03-04T06:47:08.934Z,58.50
2019-03-04T06:49:38.249Z,58.78
2019-03-04T06:52:07.946Z,58.78
2019-03-04T06:55:18.504Z,58.99
2019-03-04T06:57:52.443Z,59.26
2019-03-04T07:00:45.174Z,59.33
2019-03-04T07:03:27.708Z,59.32
2019-03-04T07:05:56.950Z,59.31
2019-03-04T07:09:11.712Z,59.21
2019-03-04T07:11:45.449Z,59.32
2019-03-04T07:14:14.686Z,59.00
2019-03-04T07:16:47.378Z,58.86
2019-03-04T07:19:18.762Z,58.59
2019-03-04T07:21:48.594Z,58.59
2019-03-04T07:24:17.878Z,58.95
2019-03-04T07:26:47.117Z,58.66
2019-03-04T07:29:16.350Z,58.66
2019-03-04T07:31:45.583Z,58.43
2019-03-04T07:34:14.813Z,58.29
2019-03-04T07:36:44.033Z,58.25
2019-03-04T07:39:16.653Z,58.11
2019-03-04T07:41:47.806Z,58.10
2019-03-04T07:44:17.013Z,57.99
2019-03-04T07:46:46.275Z,58.54
2019-03-04T07:49:15.494Z,58.11
2019-03-04T07:51:44.774Z,57.91
2019-03-04T07:54:14.028Z,56.85
2019-03-04T07:56:43.278Z,56.07
2019-03-04T07:59:12.508Z,55.29
2019-03-04T08:01:41.732Z,54.99
2019-03-04T08:04:10.920Z,54.54
2019-03-04T08:06:40.242Z,54.79
2019-03-04T08:09:57.497Z,55.24
2019-03-04T08:12:57.058Z,55.40
2019-03-04T08:15:28.584Z,55.99
2019-03-04T08:17:57.824Z,57.55
2019-03-04T08:20:27.054Z,58.98
2019-03-04T08:22:56.332Z,63.32
2019-03-04T08:25:25.607Z,68.88
2019-03-04T08:27:54.822Z,71.40
2019-03-04T08:30:24.095Z,74.53
2019-03-04T08:32:53.314Z,76.53
2019-03-04T08:35:22.510Z,76.69
2019-03-04T08:37:51.706Z,77.89
2019-03-04T08:40:21.012Z,78.63
2019-03-04T08:42:50.352Z,78.70
2019-03-04T08:45:19.960Z,76.87
2019-03-04T08:47:49.260Z,78.61
2019-03-04T08:50:18.621Z,78.58
2019-03-04T08:52:47.816Z,78.64
2019-03-04T08:55:17.319Z,77.55
2019-03-04T08:57:46.642Z,78.11
2019-03-04T09:00:20.952Z,78.99
2019-03-04T09:02:50.201Z,78.52
2019-03-04T09:05:19.444Z,77.68
2019-03-04T09:07:48.739Z,77.32
2019-03-04T09:10:22.749Z,77.64
2019-03-04T09:12:51.992Z,78.13
2019-03-04T09:15:21.369Z,77.03
2019-03-04T09:17:50.561Z,77.01
2019-03-04T09:20:19.916Z,74.88
2019-03-04T09:22:49.173Z,76.47
2019-03-04T09:25:30.680Z,75.09
2019-03-04T09:27:56.868Z,74.98
2019-03-04T09:30:26.086Z,72.27
2019-03-04T09:32:55.332Z,71.76
2019-03-04T09:35:24.586Z,70.48
2019-03-04T09:37:53.927Z,68.19
2019-03-04T09:40:23.170Z,67.45
2019-03-04T09:42:52.380Z,67.71
2019-03-04T09:45:21.741Z,67.12
2019-03-04T09:47:50.984Z,65.83
2019-03-04T09:50:20.261Z,65.30
2019-03-04T09:52:49.561Z,64.69
2019-03-04T09:55:18.785Z,64.26
2019-03-04T09:57:48.035Z,63.87
2019-03-04T10:00:34.792Z,63.06
2019-03-04T10:03:29.376Z,61.71
2019-03-04T10:06:29.208Z,61.91
2019-03-04T10:09:07.594Z,60.03
2019-03-04T10:12:13.330Z,59.35
2019-03-04T10:15:14.953Z,59.35
2019-03-04T10:17:56.743Z,58.24
2019-03-04T10:21:02.567Z,58.34
2019-03-04T10:24:04.302Z,57.54
2019-03-04T10:27:17.212Z,56.70
2019-03-04T10:30:22.022Z,56.70
2019-03-04T10:33:27.724Z,56.29
2019-03-04T10:36:35.882Z,56.45
2019-03-04T10:39:44.878Z,55.51
2019-03-04T10:42:54.718Z,54.64
2019-03-04T10:45:39.740Z,54.08
2019-03-04T10:48:09.034Z,53.46
2019-03-04T10:50:38.318Z,53.25
2019-03-04T10:53:07.492Z,53.96
2019-03-04T10:55:41.928Z,52.59
2019-03-04T10:58:06.218Z,52.63
2019-03-04T11:00:35.400Z,51.37
2019-03-04T11:03:04.601Z,51.10
2019-03-04T11:05:33.820Z,49.42
2019-03-04T11:08:03.097Z,48.63
2019-03-04T11:10:32.633Z,48.53
2019-03-04T11:13:05.517Z,48.53
2019-03-04T11:15:31.539Z,47.90
2019-03-04T11:18:00.721Z,47.90
2019-03-04T11:20:29.966Z,48.50
2019-03-04T11:22:59.168Z,48.42
2019-03-04T11:25:28.403Z,49.63
2019-03-04T11:27:57.618Z,49.30
2019-03-04T11:30:28.086Z,49.93
2019-03-04T11:32:57.320Z,49.14
2019-03-04T11:35:26.542Z,47.47
2019-03-04T11:37:55.808Z,46.11
2019-03-04T11:40:28.585Z,46.52
2019-03-04T11:42:57.808Z,46.98
2019-03-04T11:45:27.042Z,47.53
2019-03-04T11:47:56.228Z,48.21
2019-03-04T11:50:25.554Z,48.28
2019-03-04T11:52:54.838Z,48.63
2019-03-04T11:55:24.837Z,50.98
2019-03-04T11:57:54.028Z,57.46
2019-03-04T12:00:30.258Z,57.46
2019-03-04T12:02:59.461Z,61.60
2019-03-04T12:05:28.742Z,62.33
2019-03-04T12:07:58.015Z,65.05
2019-03-04T12:10:27.316Z,65.08
2019-03-04T12:12:56.528Z,61.79
2019-03-04T12:15:25.746Z,57.80
2019-03-04T12:17:54.975Z,56.70
2019-03-04T12:20:24.222Z,53.18
2019-03-04T12:22:53.498Z,54.33
2019-03-04T12:25:22.708Z,53.33
2019-03-04T12:27:52.040Z,55.91
2019-03-04T12:30:21.269Z,57.04
2019-03-04T12:32:51.083Z,57.67
2019-03-04T12:35:20.312Z,57.50
2019-03-04T12:37:49.654Z,57.50
2019-03-04T12:40:19.030Z,56.53
2019-03-04T12:42:48.255Z,56.03
2019-03-04T12:45:17.454Z,55.27
2019-03-04T12:47:46.756Z,55.16
2019-03-04T12:50:18.248Z,54.98
2019-03-04T12:52:47.504Z,53.67
2019-03-04T12:55:16.763Z,51.42
2019-03-04T12:57:46.143Z,51.53
2019-03-04T13:00:18.253Z,52.89
2019-03-04T13:02:54.316Z,54.18
2019-03-04T13:05:16.749Z,55.81
2019-03-04T13:07:46.041Z,57.41
2019-03-04T13:10:15.322Z,67.35
2019-03-04T13:12:44.655Z,67.35
2019-03-04T13:15:21.928Z,79.88
2019-03-04T13:17:51.180Z,92.17
2019-03-04T13:20:20.382Z,87.12
2019-03-04T13:22:49.611Z,85.71
2019-03-04T13:25:18.918Z,85.56
2019-03-04T13:27:48.110Z,86.10
2019-03-04T13:30:19.447Z,85.77
2019-03-04T13:32:48.802Z,86.78
2019-03-04T13:35:24.423Z,86.31
2019-03-04T13:37:49.206Z,86.38
2019-03-04T13:40:18.506Z,85.33
2019-03-04T13:42:49.549Z,85.95
2019-03-04T13:45:16.948Z,85.63
2019-03-04T13:47:46.212Z,84.04
2019-03-04T13:50:17.244Z,83.01
2019-03-04T13:52:46.473Z,79.86
2019-03-04T13:55:16.111Z,80.97
2019-03-04T13:57:45.356Z,77.40
2019-03-04T14:00:17.061Z,73.27
2019-03-04T14:02:46.522Z,73.15
2019-03-04T14:05:16.763Z,72.85
2019-03-04T14:07:46.041Z,74.61
2019-03-04T14:10:16.648Z,74.32
2019-03-04T14:12:45.867Z,74.66
2019-03-04T14:15:23.976Z,75.99
2019-03-04T14:17:53.324Z,76.97
2019-03-04T14:20:22.505Z,75.30
2019-03-04T14:22:57.531Z,77.68
2019-03-04T14:25:20.920Z,75.66
2019-03-04T14:27:50.181Z,71.03
2019-03-04T14:30:19.428Z,71.81
2019-03-04T14:32:48.642Z,72.51
2019-03-04T14:35:17.972Z,70.07
2019-03-04T14:37:47.199Z,70.39
2019-03-04T14:40:17.581Z,69.71
2019-03-04T14:42:46.901Z,70.31
2019-03-04T14:45:18.357Z,69.86
2019-03-04T14:47:47.615Z,69.74
2019-03-04T14:50:17.502Z,69.06
2019-03-04T14:52:46.747Z,67.41
2019-03-04T14:55:17.452Z,67.27
2019-03-04T14:57:46.794Z,66.57
2019-03-04T15:00:18.357Z,66.31
2019-03-04T15:02:47.599Z,67.48
2019-03-04T15:05:16.975Z,67.42
2019-03-04T15:07:46.193Z,67.19
2019-03-04T15:10:15.422Z,66.79
2019-03-04T15:12:44.625Z,65.21
2019-03-04T15:15:14.822Z,62.62
2019-03-04T15:17:44.033Z,61.30
2019-03-04T15:20:15.926Z,59.62
2019-03-04T15:22:45.172Z,59.53
2019-03-04T15:25:18.423Z,60.61
2019-03-04T15:27:47.748Z,61.10
2019-03-04T15:30:17.374Z,61.55
2019-03-04T15:32:46.565Z,62.90
2019-03-04T15:35:15.770Z,63.39
2019-03-04T15:37:44.942Z,62.46
2019-03-04T15:40:14.210Z,61.94
2019-03-04T15:42:43.474Z,62.22
2019-03-04T15:45:12.738Z,62.39
2019-03-04T15:47:41.995Z,62.29
2019-03-04T15:50:11.238Z,61.68
2019-03-04T15:52:40.494Z,62.13
2019-03-04T15:55:09.776Z,62.33
2019-03-04T15:57:39.016Z,62.11
2019-03-04T16:00:09.600Z,61.43
2019-03-04T16:02:38.840Z,62.04
2019-03-04T16:05:09.099Z,62.25
2019-03-04T16:07:38.346Z,62.03
2019-03-04T16:10:09.665Z,61.44
2019-03-04T16:12:38.940Z,61.07
2019-03-04T16:15:10.227Z,61.03
2019-03-04T16:17:39.528Z,60.76
2019-03-04T16:20:16.109Z,61.11
2019-03-04T16:22:40.162Z,60.97
2019-03-04T16:25:09.697Z,61.25
2019-03-04T16:27:38.942Z,61.49
2019-03-04T16:30:16.616Z,61.57
2019-03-04T16:32:45.943Z,60.92
2019-03-04T16:35:15.212Z,60.91
2019-03-04T16:37:44.504Z,60.44
2019-03-04T16:40:15.186Z,59.99
2019-03-04T16:42:44.400Z,60.17
2019-03-04T16:45:15.187Z,60.18
2019-03-04T16:47:44.445Z,60.10
2019-03-04T16:50:14.416Z,60.09
2019-03-04T16:52:44.392Z,60.05
2019-03-04T16:55:14.470Z,60.15
2019-03-04T16:57:43.766Z,60.20
2019-03-04T17:00:15.340Z,60.40
2019-03-04T17:02:44.612Z,60.25
2019-03-04T17:05:14.897Z,60.08
2019-03-04T17:07:44.250Z,59.74
2019-03-04T17:10:13.886Z,59.85
2019-03-04T17:12:43.226Z,59.81
2019-03-04T17:15:14.352Z,59.74
2019-03-04T17:17:43.754Z,59.68
2019-03-04T17:20:13.032Z,60.13
2019-03-04T17:22:42.500Z,59.46
2019-03-04T17:25:12.232Z,59.89
2019-03-04T17:27:41.641Z,59.39
2019-03-04T17:30:12.612Z,59.57
2019-03-04T17:32:42.118Z,59.59
2019-03-04T17:35:12.282Z,59.83
2019-03-04T17:37:41.591Z,60.00
2019-03-04T17:40:11.758Z,60.10
2019-03-04T17:42:41.186Z,60.09
2019-03-04T17:45:12.099Z,60.21
2019-03-04T17:47:41.382Z,60.13
2019-03-04T17:50:12.840Z,59.94
2019-03-04T17:52:42.169Z,60.21
2019-03-04T17:55:12.513Z,60.19
2019-03-04T17:57:41.860Z,59.99
2019-03-04T18:00:12.658Z,60.05
2019-03-04T18:02:41.854Z,59.93
2019-03-04T18:05:11.228Z,59.69
2019-03-04T18:07:40.466Z,59.51
2019-03-04T18:10:11.885Z,59.20
2019-03-04T18:12:41.158Z,58.85
2019-03-04T18:15:13.630Z,57.43
2019-03-04T18:17:42.948Z,57.13
2019-03-04T18:20:12.665Z,57.86
2019-03-04T18:22:42.044Z,58.44
2019-03-04T18:25:18.152Z,58.58
2019-03-04T18:27:53.666Z,58.67
2019-03-04T18:31:04.512Z,58.54
2019-03-04T18:34:10.603Z,59.09
2019-03-04T18:37:05.545Z,59.22
2019-03-04T18:40:26.544Z,59.38
2019-03-04T18:43:46.624Z,59.44
2019-03-04T18:47:01.056Z,59.99
2019-03-04T18:49:30.344Z,59.91
2019-03-04T18:51:59.678Z,60.47
2019-03-04T18:54:29.080Z,60.90
2019-03-04T18:56:58.351Z,60.93
2019-03-04T18:59:27.626Z,61.19
2019-03-04T19:01:56.868Z,61.08
2019-03-04T19:04:26.093Z,61.09
2019-03-04T19:06:55.382Z,61.54
2019-03-04T19:09:24.692Z,61.56
2019-03-04T19:11:53.909Z,61.58
2019-03-04T19:14:23.192Z,61.41
2019-03-04T19:16:52.481Z,61.35
2019-03-04T19:19:21.788Z,61.08
2019-03-04T19:21:51.071Z,61.16
2019-03-04T19:24:20.335Z,61.18
2019-03-04T19:26:49.749Z,61.00
2019-03-04T19:29:19.004Z,60.82
2019-03-04T19:31:48.339Z,60.88
2019-03-04T19:34:17.692Z,61.03
2019-03-04T19:36:50.170Z,60.40
2019-03-04T19:39:16.444Z,60.88
2019-03-04T19:41:45.748Z,60.86
2019-03-04T19:44:15.004Z,60.87
2019-03-04T19:46:44.236Z,60.88
2019-03-04T19:49:13.474Z,60.94
2019-03-04T19:51:42.693Z,61.41
2019-03-04T19:54:12.470Z,61.40
2019-03-04T19:56:41.768Z,61.34
2019-03-04T19:59:10.997Z,61.04
2019-03-04T20:01:40.236Z,61.37
2019-03-04T20:04:09.561Z,61.36
2019-03-04T20:06:38.796Z,61.56
2019-03-04T20:09:08.004Z,61.64
2019-03-04T20:11:37.237Z,61.71
2019-03-04T20:14:06.488Z,62.15
2019-03-04T20:16:35.729Z,62.10
2019-03-04T20:19:08.462Z,61.98
2019-03-04T20:21:34.712Z,62.09
2019-03-04T20:24:03.942Z,62.39
2019-03-04T20:26:33.155Z,62.42
2019-03-04T20:29:02.430Z,62.30
2019-03-04T20:31:31.671Z,62.25
2019-03-04T20:34:01.010Z,62.30
2019-03-04T20:36:30.192Z,62.30
2019-03-04T20:38:59.517Z,62.32
2019-03-04T20:41:28.720Z,62.17
2019-03-04T20:43:58.018Z,61.96
2019-03-04T20:46:27.277Z,61.84
2019-03-04T20:48:56.610Z,61.74
2019-03-04T20:51:25.827Z,61.64
2019-03-04T20:53:55.058Z,61.41
2019-03-04T20:56:24.305Z,61.63
2019-03-04T20:58:53.631Z,61.50
2019-03-04T21:01:22.881Z,61.57
2019-03-04T21:03:52.088Z,61.61
2019-03-04T21:06:21.303Z,61.56
2019-03-04T21:08:50.503Z,61.44
2019-03-04T21:11:19.917Z,61.65
2019-03-04T21:13:49.122Z,61.51
2019-03-04T21:16:18.382Z,61.45
2019-03-04T21:18:47.601Z,61.24
2019-03-04T21:21:16.883Z,61.15
2019-03-04T21:23:48.416Z,61.22
2019-03-04T21:26:21.245Z,61.12
2019-03-04T21:29:30.319Z,61.11
2019-03-04T21:32:39.485Z,61.07
2019-03-04T21:35:47.651Z,61.44
2019-03-04T21:38:16.884Z,61.55
2019-03-04T21:41:10.891Z,61.55
2019-03-04T21:43:44.915Z,61.54
2019-03-04T21:47:05.393Z,61.91
2019-03-04T21:49:38.397Z,62.02
2019-03-04T21:52:49.050Z,62.01
2019-03-04T21:55:36.535Z,61.85
2019-03-04T21:58:04.762Z,61.81
2019-03-04T22:00:39.735Z,62.17
2019-03-04T22:03:21.419Z,61.85
2019-03-04T22:05:50.875Z,61.57
2019-03-04T22:08:19.915Z,61.48
2019-03-04T22:10:49.087Z,61.38
2019-03-04T22:13:18.343Z,61.24
2019-03-04T22:15:47.622Z,60.96
2019-03-04T22:18:16.801Z,60.85
2019-03-04T22:20:46.032Z,60.91
2019-03-04T22:23:15.281Z,60.78
2019-03-04T22:25:44.533Z,60.67
2019-03-04T22:28:13.795Z,60.43
2019-03-04T22:30:43.069Z,60.10
2019-03-04T22:33:12.261Z,59.95
2019-03-04T22:35:41.508Z,59.97
2019-03-04T22:38:10.699Z,60.14
2019-03-04T22:40:39.982Z,59.98
2019-03-04T22:43:09.214Z,60.02
2019-03-04T22:45:38.413Z,60.17
2019-03-04T22:48:07.680Z,60.04
2019-03-04T22:50:36.942Z,60.16
2019-03-04T22:53:06.167Z,60.01
2019-03-04T22:55:36.964Z,60.16
2019-03-04T22:58:06.164Z,60.26
2019-03-04T23:01:16.812Z,60.55
2019-03-04T23:03:46.697Z,60.52
2019-03-04T23:06:19.638Z,60.89
2019-03-04T23:08:48.881Z,61.19
2019-03-04T23:11:19.297Z,61.66
2019-03-04T23:13:54.870Z,61.68
2019-03-04T23:16:27.011Z,61.89
2019-03-04T23:18:56.229Z,62.29
2019-03-04T23:21:25.431Z,62.63
2019-03-04T23:23:54.779Z,62.98
2019-03-04T23:26:23.974Z,62.94
2019-03-04T23:28:53.183Z,63.15
2019-03-04T23:31:22.447Z,63.01
2019-03-04T23:33:51.661Z,62.96
2019-03-04T23:36:20.874Z,63.06
2019-03-04T23:38:50.103Z,62.86
2019-03-04T23:41:19.463Z,62.94
2019-03-04T23:43:48.709Z,63.34
2019-03-04T23:46:18.066Z,63.47
2019-03-04T23:48:47.325Z,63.45
2019-03-04T23:51:16.667Z,63.65
2019-03-04T23:53:45.902Z,63.78
2019-03-04T23:56:15.128Z,63.94
2019-03-04T23:58:44.331Z,64.21
